createdAt,value
2023-01-21T00:00:20.419Z,100214.63
2023-01-21T00:02:52.376Z,100252.69
2023-01-21T00:05:24.318Z,100230.88
2023-01-21T00:07:56.332Z,100239.34
2023-01-21T00:10:28.259Z,100204.56
2023-01-21T00:13:00.219Z,100241.88
2023-01-21T00:15:32.306Z,100238.84
2023-01-21T00:18:04.503Z,100234.06
2023-01-21T00:20:36.777Z,100252.59
2023-01-21T00:23:11.090Z,100211.59
2023-01-21T00:25:43.705Z,100176.09
2023-01-21T00:28:15.862Z,100163.81
2023-01-21T00:30:47.906Z,100212.09
2023-01-21T00:33:19.943Z,100219.25
2023-01-21T00:36:03.506Z,100224.78
2023-01-21T00:38:36.023Z,100221.13
2023-01-21T00:41:13.133Z,100219.75
2023-01-21T00:43:45.275Z,100193.97
2023-01-21T00:46:17.400Z,100184.91
2023-01-21T00:48:49.444Z,100209.81
2023-01-21T00:51:23.914Z,100205.50
2023-01-21T00:53:56.097Z,100210.38
2023-01-21T00:56:28.080Z,100180.03
2023-01-21T00:59:00.582Z,100153.44
2023-01-21T01:01:37.529Z,100182.03
2023-01-21T01:04:11.435Z,100188.75
2023-01-21T01:06:43.363Z,100173.34
2023-01-21T01:09:15.924Z,100180.91
2023-01-21T01:11:47.907Z,100163.66
2023-01-21T01:14:19.878Z,100145.88
2023-01-21T01:16:51.821Z,100150.19
2023-01-21T01:19:23.809Z,100141.03
2023-01-21T01:21:55.799Z,100150.91
2023-01-21T01:24:27.829Z,100142.78
2023-01-21T01:26:59.772Z,100150.59
2023-01-21T01:29:31.880Z,100141.78
2023-01-21T01:32:03.970Z,100099.88
2023-01-21T01:34:36.175Z,100130.19
2023-01-21T01:37:08.191Z,100132.63
2023-01-21T01:39:40.164Z,100095.59
2023-01-21T01:42:16.516Z,100105.31
2023-01-21T01:44:56.576Z,100098.47
2023-01-21T01:47:37.915Z,100025.16
2023-01-21T01:50:15.912Z,100060.22
2023-01-21T01:52:48.223Z,100076.53
2023-01-21T01:55:20.336Z,100072.00
2023-01-21T01:57:55.540Z,100054.28
2023-01-21T02:00:28.243Z,100079.44
2023-01-21T02:03:18.861Z,100072.00
2023-01-21T02:05:51.743Z,100076.81
2023-01-21T02:08:24.946Z,100055.06
2023-01-21T02:10:56.967Z,100081.00
2023-01-21T02:13:32.021Z,100036.81
2023-01-21T02:16:11.166Z,100057.66
2023-01-21T02:19:13.884Z,100091.13
2023-01-21T02:22:03.064Z,100084.03
2023-01-21T02:25:02.739Z,100092.78
2023-01-21T02:28:01.164Z,100089.50
2023-01-21T02:30:45.139Z,100081.63
2023-01-21T02:33:52.036Z,100090.22
2023-01-21T02:36:48.373Z,100073.19
2023-01-21T02:39:44.960Z,100067.59
2023-01-21T02:42:27.068Z,100015.63
2023-01-21T02:45:10.570Z,100044.03
2023-01-21T02:48:06.744Z,100061.66
2023-01-21T02:50:45.741Z,100048.16
2023-01-21T02:53:26.121Z,100055.00
2023-01-21T02:56:14.434Z,100011.28
2023-01-21T02:58:54.659Z,100028.41
2023-01-21T03:01:35.529Z,100014.13
2023-01-21T03:04:44.998Z,100015.81
2023-01-21T03:07:45.243Z,100031.28
2023-01-21T03:10:31.112Z,99982.94
2023-01-21T03:13:13.641Z,100018.44
2023-01-21T03:16:11.856Z,99963.66
2023-01-21T03:18:50.854Z,99992.16
2023-01-21T03:21:31.261Z,99938.47
2023-01-21T03:24:04.101Z,100004.00
2023-01-21T03:26:41.860Z,100006.66
2023-01-21T03:29:24.437Z,99972.50
2023-01-21T03:32:03.266Z,100023.59
2023-01-21T03:34:41.902Z,99954.75
2023-01-21T03:37:20.848Z,99958.06
2023-01-21T03:40:11.509Z,100005.44
2023-01-21T03:42:45.141Z,100007.94
2023-01-21T03:45:24.853Z,99983.00
2023-01-21T03:48:04.737Z,99959.63
2023-01-21T03:50:44.637Z,100007.00
2023-01-21T03:53:16.673Z,99962.19
2023-01-21T03:55:51.608Z,100009.50
2023-01-21T03:58:23.600Z,99970.84
2023-01-21T04:00:55.569Z,100008.56
2023-01-21T04:03:27.599Z,99983.69
2023-01-21T04:05:59.586Z,100006.81
2023-01-21T04:08:31.599Z,99994.47
2023-01-21T04:11:03.565Z,99967.59
2023-01-21T04:13:35.711Z,100005.09
2023-01-21T04:16:08.212Z,99995.19
2023-01-21T04:18:40.242Z,99976.56
2023-01-21T04:21:12.235Z,99971.53
2023-01-21T04:23:44.156Z,99949.03
2023-01-21T04:26:16.785Z,99958.31
2023-01-21T04:28:48.713Z,99954.91
2023-01-21T04:31:20.783Z,99959.50
2023-01-21T04:33:52.874Z,99954.59
2023-01-21T04:36:25.154Z,99983.84
2023-01-21T04:38:57.094Z,99962.72
2023-01-21T04:41:29.070Z,99976.19
2023-01-21T04:44:01.042Z,99979.78
2023-01-21T04:46:33.018Z,99984.75
2023-01-21T04:49:05.090Z,99972.13
2023-01-21T04:51:37.046Z,99966.44
2023-01-21T04:54:10.974Z,99969.47
2023-01-21T04:56:42.923Z,99978.19
2023-01-21T04:59:15.068Z,99937.03
2023-01-21T05:01:47.370Z,99962.25
2023-01-21T05:04:19.358Z,99956.22
2023-01-21T05:06:51.482Z,99899.59
2023-01-21T05:09:23.461Z,99968.13
2023-01-21T05:11:55.392Z,99957.16
2023-01-21T05:14:27.350Z,99904.31
2023-01-21T05:20:51.652Z,61455.34
2023-01-21T05:26:23.710Z,61455.34
2023-01-21T05:31:55.758Z,61455.34
2023-01-21T05:37:24.706Z,61455.34
2023-01-21T05:42:53.793Z,61455.34
2023-01-21T05:48:26.120Z,61455.34
2023-01-21T05:53:58.137Z,61455.34
2023-01-21T05:58:32.801Z,78188.13
2023-01-21T06:02:27.044Z,61455.34
2023-01-21T06:04:58.982Z,99952.63
2023-01-21T06:07:30.951Z,99982.78
2023-01-21T06:10:26.878Z,99998.50
2023-01-21T06:12:58.794Z,99991.13
2023-01-21T06:15:33.598Z,99966.56
2023-01-21T06:18:06.989Z,99897.13
2023-01-21T06:20:39.317Z,99987.19
2023-01-21T06:23:11.313Z,99994.63
2023-01-21T06:25:43.974Z,99992.91
2023-01-21T06:28:15.909Z,99985.69
2023-01-21T06:30:48.069Z,100012.28
2023-01-21T06:33:20.146Z,100013.97
2023-01-21T06:35:52.200Z,100000.75
2023-01-21T06:38:24.178Z,100003.13
2023-01-21T06:40:56.184Z,100010.78
2023-01-21T06:43:38.002Z,100003.88
2023-01-21T06:46:11.147Z,99994.72
2023-01-21T06:48:43.636Z,100012.94
2023-01-21T06:51:15.572Z,100014.72
2023-01-21T06:53:47.563Z,100019.84
2023-01-21T06:56:19.543Z,100023.38
2023-01-21T06:58:51.421Z,99982.28
2023-01-21T07:01:23.475Z,99905.34
2023-01-21T07:03:55.607Z,100010.16
2023-01-21T07:06:27.834Z,99992.81
2023-01-21T07:08:59.771Z,99987.38
2023-01-21T07:11:32.516Z,100017.28
2023-01-21T07:14:04.454Z,99959.59
2023-01-21T07:16:36.677Z,100024.81
2023-01-21T07:19:08.767Z,99979.31
2023-01-21T07:21:42.222Z,100001.25
2023-01-21T07:24:14.186Z,100008.81
2023-01-21T07:26:46.316Z,99886.16
2023-01-21T07:29:18.838Z,99939.25
2023-01-21T07:31:50.834Z,99930.91
2023-01-21T07:34:22.691Z,100000.41
2023-01-21T07:36:54.625Z,99945.09
2023-01-21T07:39:26.655Z,99909.75
2023-01-21T07:42:01.080Z,99896.84
2023-01-21T07:44:35.164Z,99981.53
2023-01-21T07:47:07.571Z,99995.91
2023-01-21T07:49:41.107Z,99862.13
2023-01-21T07:52:13.119Z,99957.91
2023-01-21T07:54:45.224Z,99972.94
2023-01-21T07:57:17.232Z,99947.34
2023-01-21T07:59:49.229Z,99953.03
2023-01-21T08:02:21.914Z,99938.41
2023-01-21T08:04:54.153Z,99935.00
2023-01-21T08:07:26.350Z,100007.16
2023-01-21T08:09:58.569Z,99952.91
2023-01-21T08:12:30.781Z,99895.94
2023-01-21T08:15:02.787Z,99963.94
2023-01-21T08:17:38.021Z,100014.03
2023-01-21T08:20:12.079Z,99968.66
2023-01-21T08:22:44.090Z,100033.69
2023-01-21T08:25:16.757Z,99935.38
2023-01-21T08:27:48.906Z,100002.41
2023-01-21T08:30:21.192Z,99969.34
2023-01-21T08:32:53.165Z,100036.38
2023-01-21T08:35:25.242Z,100026.06
2023-01-21T08:38:00.140Z,100032.50
2023-01-21T08:40:32.233Z,100030.19
2023-01-21T08:43:05.282Z,100055.88
2023-01-21T08:45:37.262Z,100041.97
2023-01-21T08:48:09.210Z,100017.50
2023-01-21T08:50:41.228Z,100006.59
2023-01-21T08:53:13.175Z,100045.28
2023-01-21T08:55:45.136Z,100054.44
2023-01-21T08:58:17.157Z,100033.00
2023-01-21T09:00:49.494Z,100054.09
2023-01-21T09:03:21.509Z,100057.09
2023-01-21T09:05:53.473Z,99972.06
2023-01-21T09:08:25.495Z,99999.59
2023-01-21T09:11:01.751Z,100068.16
2023-01-21T09:13:37.700Z,100075.44
2023-01-21T09:16:11.955Z,100078.69
2023-01-21T09:18:44.521Z,100082.84
2023-01-21T09:21:17.252Z,100086.09
2023-01-21T09:23:49.201Z,100074.75
2023-01-21T09:26:23.348Z,100079.28
2023-01-21T09:29:00.810Z,100082.13
2023-01-21T09:31:32.789Z,100046.22
2023-01-21T09:34:06.192Z,100073.63
2023-01-21T09:36:38.944Z,100077.41
2023-01-21T09:39:10.961Z,100058.78
2023-01-21T09:41:54.677Z,100073.31
2023-01-21T09:44:35.496Z,100076.31
2023-01-21T09:47:08.728Z,100097.94
2023-01-21T09:49:49.876Z,100089.47
2023-01-21T09:52:33.532Z,100088.59
2023-01-21T09:55:11.471Z,100094.22
2023-01-21T09:57:58.723Z,100109.66
2023-01-21T10:00:41.260Z,100099.44
2023-01-21T10:03:17.647Z,100100.38
2023-01-21T10:05:52.709Z,100108.09
2023-01-21T10:08:30.636Z,100103.34
2023-01-21T10:11:20.624Z,100108.31
2023-01-21T10:14:10.637Z,100099.06
2023-01-21T10:17:06.769Z,100101.56
2023-01-21T10:20:14.104Z,100102.75
2023-01-21T10:23:06.099Z,100091.84
2023-01-21T10:25:40.031Z,100104.63
2023-01-21T10:28:19.967Z,100127.19
2023-01-21T10:31:09.671Z,100123.69
2023-01-21T10:33:41.826Z,100077.06
2023-01-21T10:36:13.676Z,100121.44
2023-01-21T10:39:09.260Z,100127.41
2023-01-21T10:41:56.169Z,100132.41
2023-01-21T10:45:00.153Z,100124.91
2023-01-21T10:47:50.626Z,100140.84
2023-01-21T10:50:41.251Z,100140.59
2023-01-21T10:53:22.796Z,100144.75
2023-01-21T10:56:06.850Z,100155.44
2023-01-21T10:58:48.948Z,100141.69
2023-01-21T11:01:29.016Z,100152.69
2023-01-21T11:04:07.546Z,100146.00
2023-01-21T11:06:40.800Z,100136.81
2023-01-21T11:09:14.979Z,100124.78
2023-01-21T11:11:46.960Z,100157.97
2023-01-21T11:14:21.203Z,100126.84
2023-01-21T11:16:54.194Z,100169.94
2023-01-21T11:19:30.744Z,100168.31
2023-01-21T11:22:20.299Z,100176.88
2023-01-21T11:24:53.073Z,100156.53
2023-01-21T11:27:40.221Z,100141.53
2023-01-21T11:30:49.750Z,100175.00
2023-01-21T11:33:27.425Z,100163.44
2023-01-21T11:36:12.191Z,100180.91
2023-01-21T11:38:47.110Z,100188.59
2023-01-21T11:41:23.089Z,100194.72
2023-01-21T11:44:08.183Z,100192.16
2023-01-21T11:46:41.529Z,100186.22
2023-01-21T11:49:24.343Z,100202.00
2023-01-21T11:52:17.255Z,100209.47
2023-01-21T11:54:49.307Z,100199.19
2023-01-21T11:57:28.101Z,100208.25
2023-01-21T12:00:07.852Z,100209.63
2023-01-21T12:02:44.779Z,100187.47
2023-01-21T12:05:24.024Z,100213.03
2023-01-21T12:07:56.586Z,100201.19
2023-01-21T12:10:30.930Z,100232.25
2023-01-21T12:13:48.766Z,100217.63
2023-01-21T12:16:40.670Z,100238.09
2023-01-21T12:19:37.222Z,100219.59
2023-01-21T12:22:24.143Z,100245.97
2023-01-21T12:25:26.520Z,100230.50
2023-01-21T12:28:19.336Z,100242.91
2023-01-21T12:31:12.350Z,100256.44
2023-01-21T12:34:24.476Z,100234.59
2023-01-21T12:37:14.462Z,100238.78
2023-01-21T12:39:49.889Z,100242.13
2023-01-21T12:42:35.259Z,100261.44
2023-01-21T12:45:15.006Z,100268.69
2023-01-21T12:48:43.297Z,100268.50
2023-01-21T12:51:22.694Z,100277.09
2023-01-21T12:54:11.897Z,100265.94
2023-01-21T12:56:52.867Z,100293.78
2023-01-21T12:59:38.855Z,100274.72
2023-01-21T13:02:35.090Z,100301.69
2023-01-21T13:05:19.171Z,100312.59
2023-01-21T13:08:06.211Z,100314.44
2023-01-21T13:10:42.599Z,100292.56
2023-01-21T13:13:57.396Z,100319.50
2023-01-21T13:16:30.862Z,100330.47
2023-01-21T13:19:03.058Z,100310.25
2023-01-21T13:21:44.053Z,100336.97
2023-01-21T13:24:53.950Z,100333.88
2023-01-21T13:27:31.958Z,100340.56
2023-01-21T13:30:07.051Z,100349.06
2023-01-21T13:32:58.846Z,100340.06
2023-01-21T13:35:55.037Z,100351.09
2023-01-21T13:38:54.474Z,100351.16
2023-01-21T13:41:35.251Z,100360.22
2023-01-21T13:44:20.345Z,100368.94
2023-01-21T13:47:14.192Z,100371.59
2023-01-21T13:50:23.676Z,100368.94
2023-01-21T13:53:14.062Z,100374.81
2023-01-21T13:56:01.612Z,100350.69
2023-01-21T13:58:40.434Z,100359.22
2023-01-21T14:01:19.136Z,100380.94
2023-01-21T14:04:03.056Z,100394.34
2023-01-21T14:06:43.294Z,100381.88
2023-01-21T14:09:25.948Z,100393.66
2023-01-21T14:12:05.014Z,100383.66
2023-01-21T14:15:15.215Z,100406.25
2023-01-21T14:18:05.915Z,100414.94
2023-01-21T14:21:08.629Z,100418.00
2023-01-21T14:23:53.121Z,100377.31
2023-01-21T14:26:28.019Z,100425.75
2023-01-21T14:29:21.127Z,100435.97
2023-01-21T14:32:05.357Z,100429.81
2023-01-21T14:34:42.959Z,100441.03
2023-01-21T14:37:35.366Z,100418.47
2023-01-21T14:40:19.889Z,100453.72
2023-01-21T14:42:53.599Z,100437.97
2023-01-21T14:45:51.958Z,100462.53
2023-01-21T14:48:33.465Z,100476.91
2023-01-21T14:51:08.496Z,100478.59
2023-01-21T14:53:47.514Z,100481.97
2023-01-21T14:56:23.955Z,100490.63
2023-01-21T14:59:09.543Z,100486.09
2023-01-21T15:01:45.694Z,100469.47
2023-01-21T15:04:26.874Z,100478.81
2023-01-21T15:07:08.944Z,100501.53
2023-01-21T15:09:57.142Z,100477.09
2023-01-21T15:12:33.477Z,100510.88
2023-01-21T15:15:27.746Z,100524.59
2023-01-21T15:18:23.116Z,100522.75
2023-01-21T15:21:01.021Z,100529.44
2023-01-21T15:23:32.890Z,100529.38
2023-01-21T15:26:07.783Z,100547.09
2023-01-21T15:28:44.578Z,100544.72
2023-01-21T15:31:23.927Z,100544.69
2023-01-21T15:33:59.418Z,100548.94
2023-01-21T15:36:35.057Z,100542.91
2023-01-21T15:39:18.017Z,100516.28
2023-01-21T15:42:23.639Z,100550.69
2023-01-21T15:45:02.873Z,100542.56
2023-01-21T15:48:02.273Z,100574.75
2023-01-21T15:50:59.517Z,100577.19
2023-01-21T15:53:53.769Z,100555.56
2023-01-21T15:56:50.641Z,100582.41
2023-01-21T15:59:53.499Z,100588.41
2023-01-21T16:02:32.557Z,100588.53
2023-01-21T16:05:20.147Z,100582.69
2023-01-21T16:08:21.285Z,100595.16
2023-01-21T16:11:10.340Z,100575.81
2023-01-21T16:13:51.460Z,100605.25
2023-01-21T16:16:38.873Z,100610.09
2023-01-21T16:19:15.615Z,100595.28
2023-01-21T16:21:53.988Z,100552.47
2023-01-21T16:24:28.776Z,100590.16
2023-01-21T16:27:23.073Z,100601.31
2023-01-21T16:29:57.072Z,100627.50
2023-01-21T16:32:31.252Z,100629.03
2023-01-21T16:35:03.608Z,100571.38
2023-01-21T16:37:36.066Z,100623.38
2023-01-21T16:40:25.724Z,100652.03
2023-01-21T16:43:24.295Z,100650.59
2023-01-21T16:46:03.949Z,100658.28
2023-01-21T16:48:36.807Z,100659.75
2023-01-21T16:51:24.699Z,100669.13
2023-01-21T16:54:22.245Z,100675.06
2023-01-21T16:56:59.839Z,100662.38
2023-01-21T16:59:48.612Z,100686.22
2023-01-21T17:02:34.392Z,100689.56
2023-01-21T17:05:07.367Z,100659.47
2023-01-21T17:07:51.070Z,100644.22
2023-01-21T17:10:55.279Z,100700.72
2023-01-21T17:13:30.021Z,100696.34
2023-01-21T17:16:03.803Z,100703.94
2023-01-21T17:18:43.096Z,100710.13
2023-01-21T17:21:28.410Z,100706.75
2023-01-21T17:24:05.015Z,100716.84
2023-01-21T17:26:46.488Z,100715.59
2023-01-21T17:29:26.751Z,100718.00
2023-01-21T17:31:59.982Z,100729.69
2023-01-21T17:34:36.937Z,100718.94
2023-01-21T17:37:40.096Z,100739.81
2023-01-21T17:40:42.849Z,100746.78
2023-01-21T17:43:21.933Z,100756.91
2023-01-21T17:45:56.513Z,100756.09
2023-01-21T17:48:39.050Z,100751.72
2023-01-21T17:51:19.622Z,100752.66
2023-01-21T17:53:59.265Z,100763.06
2023-01-21T17:56:41.694Z,100778.19
2023-01-21T17:59:35.217Z,100771.56
2023-01-21T18:02:12.838Z,100775.59
2023-01-21T18:04:45.055Z,100774.22
2023-01-21T18:07:32.196Z,100782.63
2023-01-21T18:10:04.427Z,100735.41
2023-01-21T18:12:36.432Z,100790.16
2023-01-21T18:15:09.764Z,100790.88
2023-01-21T18:18:03.421Z,100795.69
2023-01-21T18:20:36.602Z,100785.13
2023-01-21T18:23:11.992Z,100806.28
2023-01-21T18:25:49.939Z,100790.25
2023-01-21T18:28:24.692Z,100811.41
2023-01-21T18:30:57.966Z,100813.34
2023-01-21T18:33:31.305Z,100804.06
2023-01-21T18:36:03.381Z,100820.97
2023-01-21T18:38:36.132Z,100827.91
2023-01-21T18:41:09.152Z,100812.75
2023-01-21T18:43:42.206Z,100812.63
2023-01-21T18:46:16.598Z,100836.50
2023-01-21T18:48:48.703Z,100812.75
2023-01-21T18:51:20.670Z,100842.13
2023-01-21T18:53:52.588Z,100813.81
2023-01-21T18:56:24.518Z,100850.03
2023-01-21T18:58:56.492Z,100832.13
2023-01-21T19:01:28.667Z,100788.63
2023-01-21T19:04:00.607Z,100786.94
2023-01-21T19:06:32.561Z,100837.34
2023-01-21T19:09:20.819Z,100868.69
2023-01-21T19:11:53.033Z,100866.31
2023-01-21T19:14:25.043Z,100871.34
2023-01-21T19:16:56.961Z,100860.56
2023-01-21T19:19:28.952Z,100881.03
2023-01-21T19:22:00.887Z,100874.09
2023-01-21T19:24:32.918Z,100875.69
2023-01-21T19:27:06.566Z,100850.44
2023-01-21T19:29:38.511Z,100893.50
2023-01-21T19:32:15.368Z,100883.03
2023-01-21T19:34:47.459Z,100836.28
2023-01-21T19:37:24.607Z,100895.94
2023-01-21T19:39:56.568Z,100903.59
2023-01-21T19:42:28.492Z,100911.47
2023-01-21T19:45:00.656Z,100872.09
2023-01-21T19:47:32.654Z,100921.72
2023-01-21T19:50:06.640Z,100896.25
2023-01-21T19:52:38.526Z,100918.97
2023-01-21T19:55:15.615Z,100887.19
2023-01-21T19:57:53.050Z,100879.38
2023-01-21T20:00:35.641Z,100936.97
2023-01-21T20:03:11.790Z,100932.00
2023-01-21T20:05:43.938Z,100929.63
2023-01-21T20:08:21.426Z,100951.34
2023-01-21T20:10:53.394Z,100947.97
2023-01-21T20:13:26.371Z,100938.75
2023-01-21T20:16:04.003Z,100959.84
2023-01-21T20:18:36.118Z,100934.69
2023-01-21T20:21:08.163Z,100957.56
2023-01-21T20:23:40.147Z,100979.69
2023-01-21T20:26:21.595Z,100969.69
2023-01-21T20:28:54.987Z,100952.59
2023-01-21T20:31:27.032Z,100958.44
2023-01-21T20:33:59.096Z,100965.47
2023-01-21T20:36:31.124Z,100994.16
2023-01-21T20:39:03.196Z,100996.09
2023-01-21T20:41:35.156Z,100946.13
2023-01-21T20:44:07.527Z,100996.53
2023-01-21T20:46:39.985Z,100995.91
2023-01-21T20:49:12.643Z,101000.41
2023-01-21T20:51:44.592Z,100977.56
2023-01-21T20:54:16.548Z,100988.50
2023-01-21T20:56:48.609Z,100996.13
2023-01-21T20:59:22.071Z,101006.34
2023-01-21T21:01:55.699Z,100911.84
2023-01-21T21:04:29.874Z,101009.78
2023-01-21T21:07:01.802Z,101013.91
2023-01-21T21:09:36.545Z,101023.09
2023-01-21T21:12:08.482Z,101021.66
2023-01-21T21:14:40.403Z,101030.25
2023-01-21T21:17:12.586Z,101040.38
2023-01-21T21:19:47.457Z,101039.56
2023-01-21T21:22:19.544Z,101050.59
2023-01-21T21:24:51.560Z,101047.28
2023-01-21T21:27:23.553Z,101061.00
2023-01-21T21:29:59.495Z,101036.50
2023-01-21T21:32:31.843Z,100987.78
2023-01-21T21:35:03.897Z,100985.00
2023-01-21T21:37:35.895Z,101030.56
2023-01-21T21:40:08.847Z,101055.28
2023-01-21T21:42:59.161Z,101076.25
2023-01-21T21:45:31.215Z,101076.31
2023-01-21T21:48:23.035Z,101042.63
2023-01-21T21:50:56.836Z,101079.75
2023-01-21T21:53:30.785Z,101087.94
2023-01-21T21:56:04.767Z,101070.22
2023-01-21T21:58:37.151Z,101095.03
2023-01-21T22:01:19.798Z,101097.81
2023-01-21T22:03:52.240Z,101101.13
2023-01-21T22:06:24.197Z,101096.94
2023-01-21T22:08:58.677Z,101107.94
2023-01-21T22:11:31.144Z,101110.50
2023-01-21T22:14:04.564Z,101111.31
2023-01-21T22:16:36.961Z,101104.91
2023-01-21T22:19:08.939Z,101092.91
2023-01-21T22:21:40.889Z,101108.06
2023-01-21T22:24:12.866Z,101097.97
2023-01-21T22:26:44.979Z,101114.09
2023-01-21T22:29:16.954Z,101112.41
2023-01-21T22:31:49.063Z,101102.25
2023-01-21T22:34:21.090Z,101050.81
2023-01-21T22:36:53.256Z,101109.06
2023-01-21T22:39:25.461Z,101054.19
2023-01-21T22:42:00.478Z,101122.28
2023-01-21T22:44:32.424Z,101046.53
2023-01-21T22:47:04.420Z,101063.44
2023-01-21T22:49:36.379Z,101120.88
2023-01-21T22:52:08.391Z,101096.22
2023-01-21T22:54:40.259Z,101091.19
2023-01-21T22:57:12.204Z,101067.88
2023-01-21T22:59:44.268Z,101071.81
2023-01-21T23:02:16.607Z,101136.91
2023-01-21T23:04:48.543Z,101147.75
2023-01-21T23:07:20.542Z,101125.84
2023-01-21T23:09:52.551Z,101145.47
2023-01-21T23:12:24.672Z,101143.63
2023-01-21T23:14:56.600Z,101070.28
2023-01-21T23:17:28.519Z,101085.38
2023-01-21T23:20:00.496Z,101111.50
2023-01-21T23:22:33.796Z,101097.06
2023-01-21T23:25:06.461Z,101108.81
2023-01-21T23:27:38.480Z,101140.06
2023-01-21T23:30:11.244Z,101103.94
2023-01-21T23:32:43.403Z,101166.41
2023-01-21T23:35:15.406Z,101157.13
2023-01-21T23:37:47.254Z,101154.50
2023-01-21T23:40:19.664Z,101142.59
2023-01-21T23:42:52.036Z,101158.56
2023-01-21T23:45:24.136Z,101146.78
2023-01-21T23:47:57.700Z,101145.97
2023-01-21T23:50:29.644Z,101159.44
2023-01-21T23:53:01.607Z,101159.47
2023-01-21T23:55:33.586Z,101158.63
2023-01-21T23:58:05.620Z,101156.22
